Pittsburgh, Pennsylvania
Traffic Map
Current Weather Conditions
Pittsburgh, Pennsylvania
Broken Clouds
Broken Clouds
-13°
Feels Like: -20°
Wind Chill: -20° Ceiling: 2900
Heat Index: -13° Visibility: 10mi
Dew Point: -17° Wind: 8mph
Humidity: 73% Direction: 240° (WSW)
Pressure: 30.31in Gusts: 0mph
Raw Report DataKAGC 310953Z AUTO 24007KT 10SM BKN029 M13/M17 A3031 RMK AO2 SLP295 T11331172 TSNO
Traffic Incident Summary
Active as of:
Severity:
Category:
InformationThere was an issue retrieving the traffic information for this location. Please try a different location or try again shortly.
Advertisements
Track Severe Weather on mobile